Time;durP1;ratioP1;P1;durP2;ratioP2;P2;SDS_P1;SDS_P2;PMS_P1;PMS_P2;Temp;Humidity;BMP_temperature;BMP_pressure;BME280_temperature;BME280_humidity;BME280_pressure;Samples;Min_cycle;Max_cycle;Signal;HPM_P1;HPM_P2
2023/03/25 00:02:23;;;;;;;12.50;9.13;;;17.00;81.80;;;;;;10849439;32;20038;-74
2023/03/25 00:08:25;;;;;;;10.93;9.05;;;17.00;82.10;;;;;;10861240;32;20012;-74
2023/03/25 00:14:27;;;;;;;13.32;9.30;;;16.90;82.00;;;;;;10862282;32;20061;-74
2023/03/25 00:20:31;;;;;;;15.23;9.80;;;16.90;81.70;;;;;;10861216;32;20039;-74
2023/03/25 00:26:33;;;;;;;11.02;7.72;;;16.70;81.70;;;;;;10862084;32;20047;-74
2023/03/25 00:32:35;;;;;;;14.73;9.70;;;16.30;82.20;;;;;;10860794;32;20016;-74
2023/03/25 00:38:38;;;;;;;15.50;10.68;;;16.30;82.70;;;;;;10861113;32;20028;-74
2023/03/25 00:44:40;;;;;;;10.57;7.72;;;16.50;82.30;;;;;;10842523;32;20023;-74
2023/03/25 00:50:42;;;;;;;15.23;10.25;;;16.30;82.40;;;;;;10847716;32;20046;-74
2023/03/25 00:56:45;;;;;;;12.70;10.50;;;16.50;82.10;;;;;;10846715;32;20035;-74
2023/03/25 01:02:52;;;;;;;11.32;8.40;;;16.20;82.50;;;;;;10848041;32;20348;-74
2023/03/25 01:08:59;;;;;;;12.82;10.02;;;16.20;82.40;;;;;;10839260;32;20054;-74
2023/03/25 01:15:03;;;;;;;17.48;14.45;;;16.20;82.50;;;;;;10850388;32;20041;-74
2023/03/25 01:21:07;;;;;;;16.90;14.52;;;16.30;82.20;;;;;;10866575;32;20012;-74
2023/03/25 01:27:09;;;;;;;11.82;9.40;;;16.60;82.40;;;;;;10866395;32;20074;-74
2023/03/25 01:33:11;;;;;;;18.92;15.77;;;16.40;82.20;;;;;;10854218;32;20011;-74
2023/03/25 01:39:17;;;;;;;8.90;6.32;;;16.30;82.50;;;;;;10866631;32;20024;-74
2023/03/25 01:45:23;;;;;;;13.05;9.90;;;16.30;82.10;;;;;;10865946;32;20047;-74
2023/03/25 01:51:29;;;;;;;14.07;11.38;;;16.00;82.30;;;;;;10865924;32;20397;-74
2023/03/25 01:57:31;;;;;;;18.30;12.60;;;15.80;82.70;;;;;;10865988;32;20011;-74
2023/03/25 02:03:35;;;;;;;9.60;7.53;;;16.10;82.40;;;;;;10866449;32;20038;-74
2023/03/25 02:09:38;;;;;;;5.97;4.43;;;16.10;82.20;;;;;;10864698;32;20012;-74
2023/03/25 02:16:25;;;;;;;13.77;11.82;;;15.70;82.30;;;;;;10852781;32;20046;-74
2023/03/25 02:22:36;;;;;;;11.40;7.97;;;15.60;82.90;;;;;;10864878;32;20015;-74
2023/03/25 02:29:22;;;;;;;9.43;6.82;;;15.70;82.80;;;;;;10850425;32;20443;-74
2023/03/25 02:36:14;;;;;;;12.88;9.77;;;15.60;82.90;;;;;;10851365;32;20034;-73
2023/03/25 02:42:25;;;;;;;10.80;8.70;;;15.70;82.70;;;;;;10853658;32;20444;-73
2023/03/25 02:48:50;;;;;;;9.15;6.87;;;15.70;82.60;;;;;;10866600;32;20028;-73
2023/03/25 02:55:00;;;;;;;9.70;7.97;;;15.60;82.10;;;;;;10865732;32;20043;-72
2023/03/25 03:01:04;;;;;;;21.33;16.62;;;15.20;82.50;;;;;;10864556;32;20058;-72
2023/03/25 03:07:08;;;;;;;16.25;12.60;;;15.30;82.60;;;;;;10866028;32;20027;-73
2023/03/25 03:13:53;;;;;;;11.05;8.23;;;15.30;82.40;;;;;;10861026;32;20032;-73
2023/03/25 03:20:00;;;;;;;17.17;11.77;;;15.30;82.00;;;;;;10863700;32;20011;-73
2023/03/25 03:26:26;;;;;;;11.57;8.93;;;15.30;82.10;;;;;;10863461;32;20028;-72
2023/03/25 03:32:34;;;;;;;9.68;7.15;;;15.20;81.90;;;;;;10848084;32;20047;-72
2023/03/25 03:38:41;;;;;;;12.13;9.03;;;15.10;82.00;;;;;;10863289;32;20056;-72
2023/03/25 03:44:53;;;;;;;7.87;4.60;;;14.80;82.10;;;;;;10863008;32;20373;-73
2023/03/25 03:51:01;;;;;;;9.45;6.87;;;14.70;82.30;;;;;;10862052;32;20020;-73
2023/03/25 03:57:21;;;;;;;9.77;7.10;;;14.60;82.40;;;;;;10863311;32;20050;-72
2023/03/25 04:03:29;;;;;;;10.82;8.25;;;14.70;82.10;;;;;;10846792;32;20024;-72
2023/03/25 04:09:53;;;;;;;10.70;8.43;;;14.70;81.70;;;;;;10862568;32;20398;-72
2023/03/25 04:15:59;;;;;;;8.10;5.70;;;14.60;81.50;;;;;;10862329;32;20034;-72
2023/03/25 04:22:02;;;;;;;24.48;14.32;;;14.30;81.90;;;;;;10862137;32;20024;-72
2023/03/25 04:28:04;;;;;;;15.25;12.10;;;14.10;82.50;;;;;;10862633;32;20020;-72
2023/03/25 04:34:06;;;;;;;20.95;15.80;;;14.30;82.10;;;;;;10843629;32;20028;-72
2023/03/25 04:40:09;;;;;;;12.27;8.77;;;14.40;81.70;;;;;;10848852;32;20023;-73
2023/03/25 04:46:14;;;;;;;11.93;8.45;;;14.40;81.50;;;;;;10868239;32;20007;-72
2023/03/25 04:52:16;;;;;;;12.07;8.02;;;14.20;81.40;;;;;;10853109;32;20070;-72
2023/03/25 04:58:18;;;;;;;7.82;6.18;;;14.20;81.20;;;;;;10867868;32;20177;-72
2023/03/25 05:04:23;;;;;;;10.95;8.27;;;14.20;81.00;;;;;;10854436;32;20016;-72
2023/03/25 05:10:29;;;;;;;11.63;6.65;;;14.20;80.90;;;;;;10867065;32;20388;-72
2023/03/25 05:16:32;;;;;;;11.07;8.88;;;14.00;81.00;;;;;;10868016;32;20020;-72
2023/03/25 05:22:36;;;;;;;10.00;7.93;;;14.00;80.70;;;;;;10867219;32;20020;-72
2023/03/25 05:28:39;;;;;;;9.68;6.10;;;13.90;81.10;;;;;;10866934;32;20325;-72
2023/03/25 05:34:41;;;;;;;12.82;9.07;;;13.90;81.00;;;;;;10854124;32;20024;-72
2023/03/25 05:40:45;;;;;;;14.68;12.40;;;13.90;81.00;;;;;;10866694;32;20012;-72
2023/03/25 05:46:47;;;;;;;18.27;15.52;;;14.00;81.00;;;;;;10867128;32;20046;-72
2023/03/25 05:52:50;;;;;;;21.20;15.23;;;14.20;80.90;;;;;;10838881;32;20379;-73
2023/03/25 05:58:52;;;;;;;14.80;10.98;;;14.20;81.30;;;;;;10851427;32;20035;-72
2023/03/25 06:04:54;;;;;;;10.05;6.70;;;14.20;81.10;;;;;;10853321;32;20016;-72
2023/03/25 06:11:00;;;;;;;11.93;9.75;;;13.80;81.10;;;;;;10852664;32;20019;-72
2023/03/25 06:17:02;;;;;;;10.68;7.45;;;13.50;81.70;;;;;;10864931;32;20019;-72
2023/03/25 06:23:04;;;;;;;12.25;9.15;;;13.70;81.80;;;;;;10865539;32;20024;-72
2023/03/25 06:29:07;;;;;;;19.05;15.65;;;14.00;81.60;;;;;;10850631;32;20428;-72
2023/03/25 06:35:10;;;;;;;13.30;11.50;;;14.10;81.50;;;;;;10845976;32;20389;-72
2023/03/25 06:41:13;;;;;;;14.05;11.18;;;14.20;81.60;;;;;;10865078;32;20352;-72
2023/03/25 06:47:16;;;;;;;10.23;7.82;;;14.10;81.70;;;;;;10863626;32;20047;-72
2023/03/25 06:53:18;;;;;;;11.55;8.57;;;14.10;81.70;;;;;;10863554;32;20392;-72
2023/03/25 06:59:21;;;;;;;17.10;10.82;;;14.20;82.00;;;;;;10850740;32;20050;-72
2023/03/25 07:05:24;;;;;;;8.05;5.78;;;14.20;81.90;;;;;;10864216;32;20026;-73
2023/03/25 07:11:29;;;;;;;11.77;8.88;;;14.30;81.90;;;;;;10860282;32;20065;-72
2023/03/25 07:17:31;;;;;;;19.25;14.32;;;14.00;81.90;;;;;;10848752;32;20035;-73
2023/03/25 07:23:33;;;;;;;12.65;11.10;;;13.90;82.30;;;;;;10864259;32;20020;-72
2023/03/25 07:29:35;;;;;;;11.57;9.85;;;14.30;83.00;;;;;;10863504;32;20015;-73
2023/03/25 07:35:37;;;;;;;9.85;7.07;;;14.60;82.70;;;;;;10862353;32;20025;-72
2023/03/25 07:41:41;;;;;;;11.55;7.57;;;14.70;82.40;;;;;;10861895;32;20058;-73
2023/03/25 07:47:48;;;;;;;14.43;11.90;;;14.80;82.40;;;;;;10847717;32;20023;-73
2023/03/25 07:53:50;;;;;;;20.90;17.17;;;14.80;82.40;;;;;;10863722;27;20505;-74
2023/03/25 07:59:52;;;;;;;12.68;9.15;;;14.90;83.10;;;;;;10862593;32;20027;-74
2023/03/25 08:05:55;;;;;;;13.85;10.30;;;15.10;82.90;;;;;;10847988;32;20039;-74
2023/03/25 08:11:57;;;;;;;22.37;16.67;;;15.10;82.90;;;;;;10861192;32;20023;-74
2023/03/25 08:18:00;;;;;;;25.20;18.33;;;15.20;82.90;;;;;;10890919;32;20027;-74
2023/03/25 08:24:03;;;;;;;18.00;12.37;;;15.40;82.80;;;;;;10943209;32;20044;-74
2023/03/25 08:30:09;;;;;;;15.82;12.27;;;15.40;82.60;;;;;;10810205;33;20063;-74
2023/03/25 08:36:18;;;;;;;41.95;31.15;;;15.50;82.50;;;;;;10843166;32;20055;-74
2023/03/25 08:42:20;;;;;;;19.17;14.30;;;15.50;82.70;;;;;;10810460;33;20059;-74
2023/03/25 08:48:23;;;;;;;12.50;9.18;;;15.70;82.60;;;;;;10820993;33;20408;-74
2023/03/25 08:54:26;;;;;;;15.18;9.60;;;15.70;82.50;;;;;;10823271;33;20021;-74
2023/03/25 09:00:28;;;;;;;26.15;20.67;;;15.70;82.80;;;;;;10824437;33;20345;-74
2023/03/25 09:06:30;;;;;;;22.87;18.30;;;15.80;82.50;;;;;;10824288;33;20082;-74
2023/03/25 09:12:32;;;;;;;21.65;16.27;;;15.90;82.50;;;;;;10823846;33;20303;-74
2023/03/25 09:18:35;;;;;;;27.80;21.98;;;16.00;82.20;;;;;;10824040;33;20382;-74
2023/03/25 09:24:37;;;;;;;25.52;16.35;;;16.20;82.00;;;;;;10818613;33;20016;-75
2023/03/25 09:30:40;;;;;;;22.50;15.82;;;16.30;81.90;;;;;;10813680;33;20074;-74
2023/03/25 09:36:44;;;;;;;14.98;10.75;;;16.50;82.20;;;;;;10829121;33;20020;-74
2023/03/25 09:43:04;;;;;;;22.42;19.17;;;16.70;82.20;;;;;;10824507;33;20023;-73
2023/03/25 09:49:19;;;;;;;15.80;12.23;;;16.90;81.70;;;;;;10829359;32;20394;-74
2023/03/25 09:55:26;;;;;;;21.65;17.50;;;17.00;81.80;;;;;;10829956;33;20051;-75
2023/03/25 10:01:49;;;;;;;16.50;13.32;;;17.20;81.40;;;;;;10810391;33;20032;-74
2023/03/25 10:08:01;;;;;;;14.63;11.27;;;17.30;81.00;;;;;;10812855;33;20369;-74
2023/03/25 10:14:15;;;;;;;12.07;9.45;;;17.50;80.50;;;;;;10827673;33;20047;-74
2023/03/25 10:20:17;;;;;;;15.23;11.15;;;17.70;79.90;;;;;;10814875;32;20035;-74
2023/03/25 10:26:29;;;;;;;18.62;14.43;;;17.90;79.30;;;;;;10827547;33;20024;-74
2023/03/25 10:32:40;;;;;;;12.35;10.82;;;18.10;79.30;;;;;;10846005;32;20028;-74
2023/03/25 10:38:44;;;;;;;14.27;8.57;;;18.20;78.60;;;;;;10814961;32;20420;-74
2023/03/25 10:44:47;;;;;;;17.30;9.10;;;18.30;77.90;;;;;;10826553;33;20023;-74
2023/03/25 10:50:52;;;;;;;14.25;9.65;;;18.50;77.60;;;;;;10826279;33;20046;-74
2023/03/25 10:56:57;;;;;;;14.43;10.55;;;18.70;76.30;;;;;;10833614;32;20036;-74
2023/03/25 11:03:04;;;;;;;18.45;13.88;;;19.00;75.40;;;;;;10824611;33;20020;-74
2023/03/25 11:09:23;;;;;;;17.17;12.13;;;19.20;75.40;;;;;;10826349;33;20043;-74
2023/03/25 11:15:30;;;;;;;18.05;15.35;;;19.60;74.70;;;;;;10811745;33;20372;-74
2023/03/25 11:21:34;;;;;;;13.80;9.65;;;19.60;74.40;;;;;;10811761;33;20444;-75
2023/03/25 11:27:47;;;;;;;12.85;9.85;;;19.70;74.70;;;;;;10825143;33;20016;-74
2023/03/25 11:34:11;;;;;;;19.90;15.10;;;20.10;73.50;;;;;;10826205;33;20024;-74
2023/03/25 11:40:16;;;;;;;14.38;8.95;;;20.30;73.20;;;;;;10826815;33;20047;-75
2023/03/25 11:46:21;;;;;;;11.40;8.73;;;20.50;73.60;;;;;;10825087;33;20025;-74
2023/03/25 11:52:34;;;;;;;10.20;7.95;;;20.80;72.30;;;;;;10824091;32;20055;-74
2023/03/25 11:58:39;;;;;;;13.27;7.20;;;21.00;72.40;;;;;;10826424;33;20447;-74
2023/03/25 12:04:56;;;;;;;9.77;7.22;;;21.30;72.10;;;;;;10825621;33;20051;-74
2023/03/25 12:11:10;;;;;;;13.38;8.73;;;21.40;70.90;;;;;;10825074;33;20024;-74
2023/03/25 12:17:27;;;;;;;16.45;13.02;;;21.50;69.30;;;;;;10824672;33;20024;-74
2023/03/25 12:23:38;;;;;;;10.38;7.72;;;21.30;72.10;;;;;;10824576;33;20042;-74
2023/03/25 12:30:08;;;;;;;24.02;13.18;;;21.40;71.20;;;;;;10810329;33;20064;-74
2023/03/25 12:36:26;;;;;;;17.83;13.05;;;21.80;69.20;;;;;;10811104;32;20067;-74
2023/03/25 12:42:34;;;;;;;18.25;14.18;;;21.80;67.80;;;;;;10824685;33;20024;-74
2023/03/25 12:49:20;;;;;;;16.30;11.30;;;21.80;68.30;;;;;;10812077;32;20023;-75
2023/03/25 12:55:37;;;;;;;14.45;10.32;;;21.80;68.40;;;;;;10824406;33;20024;-74
2023/03/25 13:01:58;;;;;;;19.10;14.18;;;22.00;68.00;;;;;;10825974;32;20345;-74
2023/03/25 13:08:09;;;;;;;17.98;13.82;;;22.20;69.70;;;;;;10830798;33;20047;-75
2023/03/25 13:14:26;;;;;;;15.70;13.13;;;22.10;70.50;;;;;;10803769;32;20091;-73
2023/03/25 13:20:32;;;;;;;17.60;9.65;;;21.80;70.90;;;;;;10829656;33;20020;-74
2023/03/25 13:26:35;;;;;;;14.82;10.30;;;22.10;69.70;;;;;;10815521;33;20063;-74
2023/03/25 13:32:52;;;;;;;19.30;15.10;;;22.30;68.60;;;;;;10830035;33;20042;-73
2023/03/25 13:39:05;;;;;;;12.43;8.25;;;22.50;66.70;;;;;;10827341;33;20066;-74
2023/03/25 13:45:16;;;;;;;8.90;5.40;;;22.00;67.00;;;;;;10828936;33;20020;-74
2023/03/25 13:51:18;;;;;;;12.30;8.10;;;21.60;67.60;;;;;;10814003;33;20036;-74
2023/03/25 13:57:43;;;;;;;16.02;10.38;;;21.30;68.90;;;;;;10828776;33;20023;-74
2023/03/25 14:04:07;;;;;;;15.70;10.73;;;20.90;68.70;;;;;;10678474;33;20567;-74
2023/03/25 14:10:23;;;;;;;15.82;11.57;;;20.70;69.40;;;;;;10666805;33;20029;-74
2023/03/25 14:16:30;;;;;;;16.60;12.35;;;20.50;69.80;;;;;;10672718;33;20041;-74
2023/03/25 14:22:38;;;;;;;23.80;15.85;;;20.30;68.90;;;;;;10678449;33;20022;-74
2023/03/25 14:28:43;;;;;;;20.65;15.30;;;20.10;69.20;;;;;;10677248;32;20064;-74
2023/03/25 14:34:49;;;;;;;9.30;6.55;;;20.00;69.30;;;;;;10676970;33;20029;-74
2023/03/25 14:40:57;;;;;;;11.98;9.93;;;20.00;68.50;;;;;;10799623;33;20074;-73
2023/03/25 14:47:21;;;;;;;15.15;10.15;;;20.60;67.40;;;;;;10826204;33;20039;-74
2023/03/25 14:53:26;;;;;;;9.68;4.87;;;21.30;66.00;;;;;;10813305;33;20448;-74
2023/03/25 14:59:36;;;;;;;13.85;4.55;;;21.80;64.60;;;;;;10826736;33;20062;-74
2023/03/25 15:05:41;;;;;;;5.57;3.40;;;22.30;62.30;;;;;;10827004;33;20032;-74
2023/03/25 15:11:51;;;;;;;13.43;8.18;;;22.50;61.10;;;;;;10824104;32;20028;-74
2023/03/25 15:17:53;;;;;;;13.73;11.25;;;22.30;61.90;;;;;;10828723;32;20447;-72
2023/03/25 15:24:02;;;;;;;15.35;12.90;;;22.00;70.20;;;;;;10844252;32;20036;-73
2023/03/25 15:30:35;;;;;;;20.67;11.57;;;21.80;69.80;;;;;;10848722;32;20062;-73
2023/03/25 15:37:13;;;;;;;15.80;12.37;;;21.80;72.50;;;;;;10863861;32;20027;-74
2023/03/25 15:43:30;;;;;;;20.97;13.33;;;21.80;70.60;;;;;;10639305;33;20034;-74
2023/03/25 15:49:41;;;;;;;13.23;8.80;;;22.30;72.30;;;;;;10136673;33;16953429;-74
2023/03/25 15:55:51;;;;;;;16.80;11.45;;;22.30;70.90;;;;;;10604337;33;20042;-74
2023/03/25 16:01:53;;;;;;;14.77;10.82;;;22.40;71.70;;;;;;10603004;33;20030;-74
2023/03/25 16:08:00;;;;;;;12.73;7.57;;;22.10;72.50;;;;;;10601932;33;20064;-74
2023/03/25 16:14:03;;;;;;;11.88;6.82;;;21.30;72.30;;;;;;10604295;33;20084;-74
2023/03/25 16:20:08;;;;;;;11.48;7.15;;;21.10;74.30;;;;;;10737682;33;20020;-74
2023/03/25 16:26:14;;;;;;;9.50;5.18;;;21.10;73.40;;;;;;10786988;33;20051;-74
2023/03/25 16:32:22;;;;;;;9.23;6.47;;;20.40;72.20;;;;;;10788090;33;20039;-74
2023/03/25 16:38:24;;;;;;;16.42;7.00;;;19.80;72.20;;;;;;10790612;33;20054;-73
2023/03/25 16:44:27;;;;;;;13.25;6.30;;;19.70;71.70;;;;;;10788989;33;20067;-74
2023/03/25 16:50:30;;;;;;;13.32;6.40;;;19.80;72.90;;;;;;10793589;33;20386;-74
2023/03/25 16:56:36;;;;;;;8.05;4.28;;;19.90;73.50;;;;;;10793819;33;20024;-74
2023/03/25 17:02:40;;;;;;;10.30;5.10;;;19.90;73.70;;;;;;10793661;33;20527;-75
2023/03/25 17:08:42;;;;;;;8.25;4.68;;;19.80;73.20;;;;;;10794123;33;20338;-73
2023/03/25 17:14:47;;;;;;;10.52;5.00;;;19.40;74.20;;;;;;10780458;32;20417;-74
2023/03/25 17:20:55;;;;;;;12.35;4.28;;;19.00;74.30;;;;;;10778826;33;20039;-74
2023/03/25 17:27:26;;;;;;;5.37;3.47;;;18.60;75.20;;;;;;10793266;33;20039;-74
2023/03/25 17:33:38;;;;;;;6.05;3.70;;;18.30;75.50;;;;;;10644179;33;20324;-74
2023/03/25 17:39:47;;;;;;;12.32;7.05;;;18.00;75.80;;;;;;10631189;33;20038;-74
2023/03/25 17:45:50;;;;;;;9.88;7.28;;;17.80;76.00;;;;;;10643882;33;20033;-74
2023/03/25 17:51:52;;;;;;;7.07;4.60;;;17.70;75.90;;;;;;10630426;33;20026;-74
2023/03/25 17:57:55;;;;;;;10.90;4.07;;;17.50;75.80;;;;;;10629493;33;20068;-74
2023/03/25 18:03:57;;;;;;;5.93;4.22;;;17.50;76.20;;;;;;10643427;33;20026;-74
2023/03/25 18:09:59;;;;;;;6.60;4.85;;;17.30;76.30;;;;;;10748015;33;20381;-74
2023/03/25 18:16:01;;;;;;;6.50;4.32;;;17.30;75.90;;;;;;10791093;33;20060;-74
2023/03/25 18:22:03;;;;;;;7.97;3.70;;;17.10;75.60;;;;;;10791841;33;20295;-74
2023/03/25 18:28:06;;;;;;;4.95;3.42;;;17.10;76.40;;;;;;10791630;33;20028;-74
2023/03/25 18:34:08;;;;;;;5.68;3.22;;;17.10;76.30;;;;;;10791529;33;20378;-74
2023/03/25 18:40:27;;;;;;;7.05;3.80;;;17.10;76.50;;;;;;10790668;33;20051;-74
2023/03/25 18:46:29;;;;;;;8.43;3.70;;;17.00;76.20;;;;;;10790470;33;20050;-74
2023/03/25 18:52:31;;;;;;;5.95;4.22;;;16.90;76.70;;;;;;10790050;33;20444;-74
2023/03/25 18:58:34;;;;;;;8.02;5.05;;;16.80;76.90;;;;;;10808023;32;20033;-74
2023/03/25 19:04:36;;;;;;;6.40;4.32;;;16.60;78.00;;;;;;10790456;33;20020;-74
2023/03/25 19:10:38;;;;;;;6.45;4.20;;;16.70;78.70;;;;;;10789449;33;20016;-74
2023/03/25 19:16:40;;;;;;;5.65;3.20;;;16.60;78.70;;;;;;10788928;33;20027;-74
2023/03/25 19:22:43;;;;;;;12.57;4.78;;;16.60;79.10;;;;;;10790010;33;20020;-74
2023/03/25 19:28:45;;;;;;;7.80;4.72;;;16.80;79.20;;;;;;10788573;33;20032;-74
2023/03/25 19:34:50;;;;;;;5.03;3.78;;;16.70;78.90;;;;;;10788791;33;20397;-74
2023/03/25 19:41:11;;;;;;;7.05;4.90;;;16.70;79.40;;;;;;10788286;33;20059;-74
2023/03/25 19:47:13;;;;;;;19.33;6.18;;;16.80;79.50;;;;;;10775223;33;20028;-74
2023/03/25 19:53:15;;;;;;;5.50;3.47;;;16.70;80.00;;;;;;10787239;33;20051;-74
2023/03/25 19:59:17;;;;;;;9.50;5.97;;;16.70;80.40;;;;;;10784237;33;20024;-75
2023/03/25 20:05:21;;;;;;;5.28;3.97;;;16.60;80.40;;;;;;10788394;33;20024;-74
2023/03/25 20:11:23;;;;;;;2.53;1.98;;;16.50;80.60;;;;;;10771869;33;20060;-74
2023/03/25 20:17:25;;;;;;;6.95;3.15;;;16.50;80.50;;;;;;10787538;33;20047;-74
2023/03/25 20:23:27;;;;;;;5.15;3.70;;;16.50;80.60;;;;;;10788642;33;20370;-75
2023/03/25 20:29:29;;;;;;;7.55;5.90;;;16.50;80.50;;;;;;10787984;33;20047;-74
2023/03/25 20:35:31;;;;;;;9.60;6.07;;;16.50;80.40;;;;;;10788274;33;20043;-74
2023/03/25 20:41:33;;;;;;;10.85;9.13;;;16.30;80.00;;;;;;10786947;33;20025;-74
2023/03/25 20:47:36;;;;;;;10.30;8.15;;;16.20;80.30;;;;;;10788030;33;20404;-74
2023/03/25 20:53:40;;;;;;;7.32;4.07;;;16.20;80.60;;;;;;10769645;33;20031;-74
2023/03/25 20:59:42;;;;;;;5.82;3.22;;;16.10;81.20;;;;;;10785566;33;20359;-75
2023/03/25 21:05:45;;;;;;;7.78;5.72;;;16.00;81.30;;;;;;10787702;33;20029;-74
2023/03/25 21:11:47;;;;;;;9.23;6.05;;;16.10;81.20;;;;;;10786486;33;20029;-74
2023/03/25 21:17:49;;;;;;;7.15;4.95;;;16.20;81.20;;;;;;10785565;33;20036;-74
2023/03/25 21:23:51;;;;;;;9.82;7.87;;;16.20;81.40;;;;;;10789858;33;20024;-74
2023/03/25 21:29:54;;;;;;;8.85;5.25;;;16.20;81.30;;;;;;10792792;33;20053;-74
2023/03/25 21:35:56;;;;;;;10.43;5.70;;;16.20;81.20;;;;;;10792928;33;20017;-74
2023/03/25 21:41:58;;;;;;;6.43;3.95;;;16.10;81.60;;;;;;10791884;33;20047;-74
2023/03/25 21:48:04;;;;;;;9.15;6.18;;;16.00;81.50;;;;;;10793455;33;20021;-74
2023/03/25 21:54:06;;;;;;;7.82;5.53;;;15.90;81.40;;;;;;10797353;32;20034;-74
2023/03/25 22:00:13;;;;;;;7.37;5.95;;;15.90;81.60;;;;;;10792390;33;20028;-74
2023/03/25 22:06:19;;;;;;;10.60;6.60;;;15.90;81.50;;;;;;10791645;33;20050;-74
2023/03/25 22:12:21;;;;;;;7.82;4.72;;;15.90;81.50;;;;;;10779745;33;20056;-74
2023/03/25 22:18:24;;;;;;;6.00;3.45;;;15.80;81.70;;;;;;10790610;33;20020;-74
2023/03/25 22:24:26;;;;;;;8.18;5.75;;;15.60;81.70;;;;;;10791198;33;20020;-74
2023/03/25 22:30:29;;;;;;;8.18;5.68;;;15.50;81.90;;;;;;10790973;33;20024;-74
2023/03/25 22:36:32;;;;;;;9.02;6.03;;;15.50;81.80;;;;;;10788847;33;20055;-74
2023/03/25 22:42:34;;;;;;;13.32;7.57;;;15.60;81.70;;;;;;10791817;33;20016;-74
2023/03/25 22:48:40;;;;;;;8.15;6.15;;;15.60;81.70;;;;;;10790544;33;20047;-74
2023/03/25 22:54:42;;;;;;;8.13;5.40;;;15.60;82.10;;;;;;10790483;33;20031;-74
2023/03/25 23:00:45;;;;;;;6.37;4.70;;;15.50;82.40;;;;;;10790115;33;20012;-74
2023/03/25 23:06:47;;;;;;;5.30;3.80;;;15.40;82.40;;;;;;10791099;33;20016;-74
2023/03/25 23:12:49;;;;;;;8.70;5.78;;;15.20;82.30;;;;;;10776786;33;20017;-74
2023/03/25 23:18:52;;;;;;;7.75;5.43;;;15.30;82.20;;;;;;10789161;33;20066;-74
2023/03/25 23:24:57;;;;;;;6.82;5.10;;;15.20;82.40;;;;;;10788972;33;20033;-74
2023/03/25 23:31:02;;;;;;;8.93;5.85;;;15.20;82.20;;;;;;10787505;33;20028;-74
2023/03/25 23:37:06;;;;;;;17.90;7.53;;;15.20;82.40;;;;;;10774717;33;20401;-74
2023/03/25 23:43:08;;;;;;;10.25;8.93;;;15.20;82.30;;;;;;10789032;33;20012;-74
2023/03/25 23:49:11;;;;;;;8.43;5.03;;;15.00;82.40;;;;;;10793379;27;20062;-74
2023/03/25 23:55:13;;;;;;;4.82;3.45;;;14.90;82.80;;;;;;10789846;33;20405;-72
